DW0128 Weather Reports


Display with metric or nautical units.
time (UTC)temp
F
wind
direction
speed
MPH
gust
MPH
rain 1hr
in
rain 24hr
in
rain mn
in
humidity
%
barometer
mb
20180921161810 71 0 0.0 0.0 0.00 0.00 0.00 62 1005.0
20180921161310 71 0 0.0 0.0 0.00 0.00 0.00 62 1005.0
20180921160810 71 0 0.0 0.0 0.00 0.00 0.00 61 1005.0
20180921160309 71 0 0.0 0.0 0.00 0.00 0.00 61 1005.0
20180921154810 72 0 0.0 0.0 0.00 0.00 0.00 59 1005.0
20180921154310 72 0 0.0 0.0 0.00 0.00 0.00 59 1005.0
20180921153810 72 0 0.0 0.0 0.00 0.00 0.00 59 1005.0
20180921153310 72 0 0.0 0.0 0.00 0.00 0.00 58 1005.0
20180921151809 73 0 0.0 0.0 0.00 0.00 0.00 57 1006.0
20180921151310 74 0 0.0 0.0 0.00 0.00 0.00 56 1006.0
20180921150809 74 0 0.0 0.0 0.00 0.00 0.00 56 1006.0
20180921150310 74 0 0.0 0.0 0.00 0.00 0.00 56 1006.0
20180921144810 75 0 0.0 0.0 0.00 0.00 0.00 53 1006.0
20180921144310 75 0 0.0 0.0 0.00 0.00 0.00 53 1006.0
20180921143809 75 0 0.0 0.0 0.00 0.00 0.00 53 1006.0
20180921143309 75 0 0.0 0.0 0.00 0.00 0.00 53 1006.0
20180921141809 76 0 0.0 0.0 0.00 0.00 0.00 52 1006.0
20180921141309 76 0 0.0 0.0 0.00 0.00 0.00 52 1006.0
20180921140809 76 0 0.0 0.0 0.00 0.00 0.00 52 1006.0
20180921140310 76 0 0.0 0.0 0.00 0.00 0.00 51 1006.0
20180921134810 76 0 0.0 0.0 0.00 0.00 0.00 51 1007.0
20180921134310 76 0 0.0 0.0 0.00 0.00 0.00 51 1007.0
20180921133810 76 0 0.0 0.0 0.00 0.00 0.00 50 1007.0
20180921133309 76 0 0.0 0.0 0.00 0.00 0.00 51 1007.0
20180921131810 76 0 0.0 0.0 0.00 0.00 0.00 51 1008.0
20180921131310 76 0 0.0 0.0 0.00 0.00 0.00 51 1008.0
20180921130809 76 0 0.0 0.0 0.00 0.00 0.00 51 1008.0
20180921130310 76 0 0.0 0.0 0.00 0.00 0.00 51 1008.0
20180921124810 74 0 0.0 0.0 0.00 0.00 0.00 53 1007.0
20180921124310 74 0 0.0 0.0 0.00 0.00 0.00 52 1007.0
20180921123809 74 0 0.0 0.0 0.00 0.00 0.00 53 1008.0
20180921123309 74 0 0.0 0.0 0.00 0.00 0.00 51 1008.0
20180921121809 74 0 0.0 0.0 0.00 0.00 0.00 52 1008.0
20180921121309 74 0 0.0 0.0 0.00 0.00 0.00 50 1008.0
20180921120809 74 0 0.0 0.0 0.00 0.00 0.00 51 1008.0
20180921120310 75 0 0.0 0.0 0.00 0.00 0.00 50 1008.0
20180921114809 73 0 0.0 0.0 0.00 0.00 0.00 51 1009.0
20180921114309 74 0 0.0 0.0 0.00 0.00 0.00 51 1009.0
20180921113810 74 0 0.0 0.0 0.00 0.00 0.00 51 1009.0
20180921113310 75 0 0.0 0.0 0.00 0.00 0.00 51 1009.0
20180921111809 75 0 0.0 0.0 0.00 0.00 0.00 51 1009.0
20180921111309 74 0 0.0 0.0 0.00 0.00 0.00 52 1009.0
20180921110810 72 0 0.0 0.0 0.00 0.00 0.00 53 1009.0
20180921110310 72 0 0.0 0.0 0.00 0.00 0.00 54 1009.0
20180921104809 72 0 0.0 0.0 0.00 0.00 0.00 54 1010.0
20180921104310 72 0 0.0 0.0 0.00 0.00 0.00 53 1010.0
20180921103809 72 0 0.0 0.0 0.00 0.00 0.00 52 1010.0
20180921103309 73 0 0.0 0.0 0.00 0.00 0.00 53 1010.0
20180921101836 75 0 0.0 0.0 0.00 0.00 0.00 50 1009.0
20180921101309 75 0 0.0 0.0 0.00 0.00 0.00 54 1009.0
20180921100810 74 0 0.0 0.0 0.00 0.00 0.00 53 1010.0
20180921100310 74 0 0.0 0.0 0.00 0.00 0.00 53 1010.0
20180921094809 72 0 0.0 0.0 0.00 0.00 0.00 55 1010.0
20180921094309 73 0 0.0 0.0 0.00 0.00 0.00 57 1010.0
20180921093810 72 0 0.0 0.0 0.00 0.00 0.00 58 1010.0
20180921093309 72 0 0.0 0.0 0.00 0.00 0.00 57 1010.0
20180921091810 71 0 0.0 0.0 0.00 0.00 0.00 61 1010.0
20180921091309 71 0 0.0 0.0 0.00 0.00 0.00 61 1010.0
20180921090809 71 0 0.0 0.0 0.00 0.00 0.00 61 1011.0
20180921090310 70 0 0.0 0.0 0.00 0.00 0.00 65 1011.0
20180921084809 67 0 0.0 0.0 0.00 0.00 0.00 71 1011.0
20180921084309 67 0 0.0 0.0 0.00 0.00 0.00 71 1011.0
20180921083810 68 0 0.0 0.0 0.00 0.00 0.00 70 1011.0
20180921081810 68 0 0.0 0.0 0.00 0.00 0.00 70 1011.0
20180921081309 68 0 0.0 0.0 0.00 0.00 0.00 72 1011.0
20180921080809 67 0 0.0 0.0 0.00 0.00 0.00 74 1011.0
20180921080309 67 0 0.0 0.0 0.00 0.00 0.00 78 1011.0
20180921074809 62 0 0.0 0.0 0.00 0.00 0.00 84 1012.0
20180921074309 62 0 0.0 0.0 0.00 0.00 0.00 84 1012.0
20180921073809 62 0 0.0 0.0 0.00 0.00 0.00 86 1012.0
20180921073309 62 0 0.0 0.0 0.00 0.00 0.00 84 1012.0
20180921071809 62 0 0.0 0.0 0.00 0.00 0.00 86 1012.0
20180921071309 62 0 0.0 0.0 0.00 0.00 0.00 86 1012.0
20180921070809 62 0 0.0 0.0 0.00 0.00 0.00 87 1012.0
20180921070309 62 0 0.0 0.0 0.00 0.00 0.00 89 1012.0
20180921064809 60 0 0.0 0.0 0.00 0.00 0.00 90 1012.0
20180921064309 60 0 0.0 0.0 0.00 0.00 0.00 90 1012.0
20180921063809 60 0 0.0 0.0 0.00 0.00 0.00 90 1012.0
20180921063310 60 0 0.0 0.0 0.00 0.00 0.00 90 1012.0
20180921061809 60 0 0.0 0.0 0.00 0.00 0.00 90 1011.0
20180921061309 59 0 0.0 0.0 0.00 0.00 0.00 90 1011.0
20180921060810 59 0 0.0 0.0 0.00 0.00 0.00 89 1012.0
20180921060309 59 0 0.0 0.0 0.00 0.00 0.00 89 1012.0
20180921054809 59 0 0.0 0.0 0.00 0.00 0.00 89 1011.0
20180921054309 59 0 0.0 0.0 0.00 0.00 0.00 90 1011.0
20180921053809 59 0 0.0 0.0 0.00 0.00 0.00 91 1012.0
20180921053311 59 0 0.0 0.0 0.00 0.00 0.00 91 1012.0
20180921051809 58 0 0.0 0.0 0.00 0.00 0.00 91 1012.0
20180921051309 58 0 0.0 0.0 0.00 0.00 0.00 91 1012.0
20180921050809 58 0 0.0 0.0 0.00 0.00 0.00 91 1012.0
20180921050308 58 0 0.0 0.0 0.00 0.00 0.00 91 1012.0
20180921044809 58 0 0.0 0.0 0.00 0.00 0.00 91 1012.0
20180921044309 58 0 0.0 0.0 0.00 0.00 0.00 91 1012.0
20180921043809 58 0 0.0 0.0 0.00 0.00 0.00 91 1012.0
20180921043309 58 0 0.0 0.0 0.00 0.00 0.00 91 1012.0
20180921041809 58 0 0.0 0.0 0.00 0.00 0.00 91 1012.0
20180921041309 58 0 0.0 0.0 0.00 0.00 0.00 91 1012.0
20180921040809 58 0 0.0 0.0 0.00 0.00 0.00 91 1012.0
20180921040309 58 0 0.0 0.0 0.00 0.00 0.00 91 1012.0
20180921034809 58 0 0.0 0.0 0.00 0.00 0.00 91 1012.0
20180921034309 58 0 0.0 0.0 0.00 0.00 0.00 90 1012.0
20180921033809 58 0 0.0 0.0 0.00 0.00 0.00 90 1012.0
20180921033309 58 0 0.0 0.0 0.00 0.00 0.00 90 1012.0
20180921031809 59 0 0.0 0.0 0.00 0.00 0.00 89 1012.0
20180921031309 59 0 0.0 0.0 0.00 0.00 0.00 89 1012.0
20180921030809 59 0 0.0 0.0 0.00 0.00 0.00 89 1012.0
20180921030309 59 0 0.0 0.0 0.00 0.00 0.00 90 1012.0
20180921024809 59 0 0.0 0.0 0.00 0.00 0.00 90 1012.0
20180921024310 59 0 0.0 0.0 0.00 0.00 0.00 90 1012.0
20180921023809 58 0 0.0 0.0 0.00 0.00 0.00 90 1012.0
20180921023309 58 0 0.0 0.0 0.00 0.00 0.00 89 1012.0
20180921021809 59 0 0.0 0.0 0.00 0.00 0.00 90 1012.0
20180921021309 59 0 0.0 0.0 0.00 0.00 0.00 90 1012.0
20180921020809 59 0 0.0 0.0 0.00 0.00 0.00 90 1011.0
20180921020309 59 0 0.0 0.0 0.00 0.00 0.00 88 1011.0
20180921014809 59 0 0.0 0.0 0.00 0.00 0.00 88 1011.0
20180921014309 59 0 0.0 0.0 0.00 0.00 0.00 88 1011.0
20180921013809 60 0 0.0 0.0 0.00 0.00 0.00 88 1011.0
20180921013309 60 0 0.0 0.0 0.00 0.00 0.00 89 1011.0
20180921011809 60 0 0.0 0.0 0.00 0.00 0.00 88 1011.0
20180921011308 60 0 0.0 0.0 0.00 0.00 0.00 88 1011.0
20180921010809 60 0 0.0 0.0 0.00 0.00 0.00 88 1011.0
20180921010308 60 0 0.0 0.0 0.00 0.00 0.00 88 1011.0
20180921004809 60 0 0.0 0.0 0.00 0.00 0.00 88 1011.0
20180921004309 60 0 0.0 0.0 0.00 0.00 0.00 88 1011.0
20180921003809 60 0 0.0 0.0 0.00 0.00 0.00 88 1011.0
20180921003309 60 0 0.0 0.0 0.00 0.00 0.00 87 1011.0
20180921001808 60 0 0.0 0.0 0.00 0.00 0.00 87 1011.0
20180921001309 60 0 0.0 0.0 0.00 0.00 0.00 87 1011.0
20180921000808 60 0 0.0 0.0 0.00 0.00 0.00 88 1011.0
20180921000309 60 0 0.0 0.0 0.00 0.00 0.00 87 1011.0
20180920234808 60 0 0.0 0.0 0.00 0.00 0.00 87 1010.0
20180920234308 60 0 0.0 0.0 0.00 0.00 0.00 86 1010.0
20180920233809 60 0 0.0 0.0 0.00 0.00 0.00 86 1011.0
20180920233308 60 0 0.0 0.0 0.00 0.00 0.00 86 1011.0
20180920231809 61 0 0.0 0.0 0.00 0.00 0.00 86 1010.0
20180920231309 61 0 0.0 0.0 0.00 0.00 0.00 86 1010.0
20180920230809 61 0 0.0 0.0 0.00 0.00 0.00 86 1010.0
20180920230309 61 0 0.0 0.0 0.00 0.00 0.00 86 1010.0
20180920224809 61 0 0.0 0.0 0.00 0.00 0.00 86 1010.0
20180920224309 61 0 0.0 0.0 0.00 0.00 0.00 86 1010.0
20180920223809 61 0 0.0 0.0 0.00 0.00 0.00 86 1010.0
20180920223309 61 0 0.0 0.0 0.00 0.00 0.00 86 1010.0
20180920221809 61 0 0.0 0.0 0.00 0.00 0.00 84 1010.0
20180920221309 61 0 0.0 0.0 0.00 0.00 0.00 84 1010.0
20180920220809 61 0 0.0 0.0 0.00 0.00 0.00 84 1010.0
20180920220309 61 0 0.0 0.0 0.00 0.00 0.00 84 1010.0
20180920214809 61 0 0.0 0.0 0.00 0.00 0.00 84 1010.0
20180920214309 61 0 0.0 0.0 0.00 0.00 0.00 84 1010.0
20180920213809 61 0 0.0 0.0 0.00 0.00 0.00 84 1009.0
20180920213308 61 0 0.0 0.0 0.00 0.00 0.00 84 1009.0
20180920211809 61 0 0.0 0.0 0.00 0.00 0.00 86 1010.0
20180920211308 60 0 0.0 0.0 0.00 0.00 0.00 86 1010.0
20180920210809 60 0 0.0 0.0 0.00 0.00 0.00 86 1010.0
20180920210309 60 0 0.0 0.0 0.00 0.00 0.00 86 1010.0
20180920204808 60 0 0.0 0.0 0.00 0.00 0.00 86 1010.0
20180920204309 60 0 0.0 0.0 0.00 0.00 0.00 86 1010.0
20180920203809 60 0 0.0 0.0 0.00 0.00 0.00 87 1011.0
20180920203309 60 0 0.0 0.0 0.00 0.00 0.00 87 1011.0
20180920201808 59 0 0.0 0.0 0.00 0.00 0.00 87 1010.0
20180920201308 59 0 0.0 0.0 0.00 0.00 0.00 88 1010.0
20180920200809 59 0 0.0 0.0 0.00 0.00 0.00 87 1010.0
20180920200309 59 0 0.0 0.0 0.00 0.00 0.00 87 1010.0
20180920194808 59 0 0.0 0.0 0.00 0.00 0.00 86 1010.0
20180920194309 60 0 0.0 0.0 0.00 0.00 0.00 86 1010.0
20180920193808 60 0 0.0 0.0 0.00 0.00 0.00 86 1010.0
20180920193309 60 0 0.0 0.0 0.00 0.00 0.00 86 1010.0
20180920191809 60 0 0.0 0.0 0.00 0.00 0.00 86 1010.0
20180920191309 60 0 0.0 0.0 0.00 0.00 0.00 86 1010.0
20180920190809 60 0 0.0 0.0 0.00 0.00 0.00 86 1010.0
20180920190308 60 0 0.0 0.0 0.00 0.00 0.00 86 1010.0
20180920184808 60 0 0.0 0.0 0.00 0.00 0.00 86 1010.0
20180920184309 60 0 0.0 0.0 0.00 0.00 0.00 84 1010.0
20180920183809 60 0 0.0 0.0 0.00 0.00 0.00 83 1010.0
20180920183308 60 0 0.0 0.0 0.00 0.00 0.00 83 1010.0
20180920181809 60 0 0.0 0.0 0.00 0.00 0.00 82 1010.0
20180920181309 60 0 0.0 0.0 0.00 0.00 0.00 81 1010.0
20180920180808 61 0 0.0 0.0 0.00 0.00 0.00 81 1011.0
20180920180309 61 0 0.0 0.0 0.00 0.00 0.00 81 1011.0
20180920174808 61 0 0.0 0.0 0.00 0.00 0.00 82 1011.0
20180920174310 61 0 0.0 0.0 0.00 0.00 0.00 82 1011.0
20180920173809 61 0 0.0 0.0 0.00 0.00 0.00 83 1011.0
20180920173308 61 0 0.0 0.0 0.00 0.00 0.00 82 1011.0
20180920171808 61 0 0.0 0.0 0.00 0.00 0.00 82 1011.0
20180920171308 61 0 0.0 0.0 0.00 0.00 0.00 82 1011.0
20180920170808 61 0 0.0 0.0 0.00 0.00 0.00 81 1011.0
20180920170309 62 0 0.0 0.0 0.00 0.00 0.00 82 1011.0
20180920164809 62 0 0.0 0.0 0.00 0.00 0.00 81 1010.0
20180920164309 62 0 0.0 0.0 0.00 0.00 0.00 80 1010.0
20180920163809 62 0 0.0 0.0 0.00 0.00 0.00 80 1011.0
20180920163309 62 0 0.0 0.0 0.00 0.00 0.00 80 1011.0